sensor_id;sensor_type;location;lat;lon;timestamp;temperature;humidity
9103;DHT22;4587;51.434;6.788;2024-02-16T00:00:17;13.80;99.90
9103;DHT22;4587;51.434;6.788;2024-02-16T00:02:43;13.80;99.90
9103;DHT22;4587;51.434;6.788;2024-02-16T00:05:09;13.90;99.90
9103;DHT22;4587;51.434;6.788;2024-02-16T00:07:37;13.90;99.90
9103;DHT22;4587;51.434;6.788;2024-02-16T00:10:04;13.90;99.90
9103;DHT22;4587;51.434;6.788;2024-02-16T00:12:30;14.00;99.90
9103;DHT22;4587;51.434;6.788;2024-02-16T00:14:56;13.90;99.90
9103;DHT22;4587;51.434;6.788;2024-02-16T00:17:22;13.90;99.90
9103;DHT22;4587;51.434;6.788;2024-02-16T00:19:47;13.90;99.90
9103;DHT22;4587;51.434;6.788;2024-02-16T00:22:13;14.00;99.90
9103;DHT22;4587;51.434;6.788;2024-02-16T00:24:38;14.00;99.90
9103;DHT22;4587;51.434;6.788;2024-02-16T00:27:04;14.00;99.90
9103;DHT22;4587;51.434;6.788;2024-02-16T00:29:31;13.90;99.90
9103;DHT22;4587;51.434;6.788;2024-02-16T00:31:57;14.00;99.90
9103;DHT22;4587;51.434;6.788;2024-02-16T00:34:24;14.00;99.90
9103;DHT22;4587;51.434;6.788;2024-02-16T00:36:50;14.00;99.90
9103;DHT22;4587;51.434;6.788;2024-02-16T00:39:16;14.10;99.90
9103;DHT22;4587;51.434;6.788;2024-02-16T00:41:41;14.10;99.90
9103;DHT22;4587;51.434;6.788;2024-02-16T00:44:07;14.10;99.90
9103;DHT22;4587;51.434;6.788;2024-02-16T00:46:35;14.00;99.90
9103;DHT22;4587;51.434;6.788;2024-02-16T00:49:01;14.10;99.90
9103;DHT22;4587;51.434;6.788;2024-02-16T00:51:27;14.00;99.90
9103;DHT22;4587;51.434;6.788;2024-02-16T00:53:52;14.00;99.90
9103;DHT22;4587;51.434;6.788;2024-02-16T00:56:18;13.90;99.90
9103;DHT22;4587;51.434;6.788;2024-02-16T00:58:44;13.90;99.90
9103;DHT22;4587;51.434;6.788;2024-02-16T01:01:09;13.90;99.90
9103;DHT22;4587;51.434;6.788;2024-02-16T01:03:40;13.90;99.90
9103;DHT22;4587;51.434;6.788;2024-02-16T01:06:06;13.90;99.90
9103;DHT22;4587;51.434;6.788;2024-02-16T01:08:34;13.90;99.90
9103;DHT22;4587;51.434;6.788;2024-02-16T01:11:00;13.90;99.90
9103;DHT22;4587;51.434;6.788;2024-02-16T01:13:25;14.00;99.90
9103;DHT22;4587;51.434;6.788;2024-02-16T01:15:51;13.90;99.90
9103;DHT22;4587;51.434;6.788;2024-02-16T01:18:17;13.90;99.90
9103;DHT22;4587;51.434;6.788;2024-02-16T01:20:43;13.90;99.90
9103;DHT22;4587;51.434;6.788;2024-02-16T01:23:08;13.80;99.90
9103;DHT22;4587;51.434;6.788;2024-02-16T01:25:34;13.80;99.90
9103;DHT22;4587;51.434;6.788;2024-02-16T01:27:59;13.80;99.90
9103;DHT22;4587;51.434;6.788;2024-02-16T01:30:25;13.90;99.90
9103;DHT22;4587;51.434;6.788;2024-02-16T01:32:50;14.00;99.90
9103;DHT22;4587;51.434;6.788;2024-02-16T01:35:16;14.00;99.90
9103;DHT22;4587;51.434;6.788;2024-02-16T01:37:42;13.90;99.90
9103;DHT22;4587;51.434;6.788;2024-02-16T01:40:09;13.90;99.90
9103;DHT22;4587;51.434;6.788;2024-02-16T01:42:40;13.90;99.90
9103;DHT22;4587;51.434;6.788;2024-02-16T01:45:06;13.90;99.90
9103;DHT22;4587;51.434;6.788;2024-02-16T01:47:32;14.00;99.90
9103;DHT22;4587;51.434;6.788;2024-02-16T01:49:58;14.00;99.90
9103;DHT22;4587;51.434;6.788;2024-02-16T01:52:24;14.00;99.90
9103;DHT22;4587;51.434;6.788;2024-02-16T01:54:49;14.00;99.90
9103;DHT22;4587;51.434;6.788;2024-02-16T01:57:15;14.00;99.90
9103;DHT22;4587;51.434;6.788;2024-02-16T01:59:41;14.00;99.90
9103;DHT22;4587;51.434;6.788;2024-02-16T02:02:06;14.00;99.90
9103;DHT22;4587;51.434;6.788;2024-02-16T02:04:32;14.00;99.90
9103;DHT22;4587;51.434;6.788;2024-02-16T02:06:58;14.00;99.90
9103;DHT22;4587;51.434;6.788;2024-02-16T02:09:24;14.10;99.90
9103;DHT22;4587;51.434;6.788;2024-02-16T02:11:49;14.00;99.90
9103;DHT22;4587;51.434;6.788;2024-02-16T02:14:15;14.00;99.90
9103;DHT22;4587;51.434;6.788;2024-02-16T02:16:40;14.00;99.90
9103;DHT22;4587;51.434;6.788;2024-02-16T02:19:06;14.00;99.90
9103;DHT22;4587;51.434;6.788;2024-02-16T02:21:31;14.10;99.90
9103;DHT22;4587;51.434;6.788;2024-02-16T02:23:57;14.10;99.90
9103;DHT22;4587;51.434;6.788;2024-02-16T02:26:22;14.00;99.90
9103;DHT22;4587;51.434;6.788;2024-02-16T02:28:48;14.00;99.90
9103;DHT22;4587;51.434;6.788;2024-02-16T02:31:13;14.00;99.90
9103;DHT22;4587;51.434;6.788;2024-02-16T02:33:39;14.00;99.90
9103;DHT22;4587;51.434;6.788;2024-02-16T02:36:05;14.00;99.90
9103;DHT22;4587;51.434;6.788;2024-02-16T02:38:30;14.00;99.90
9103;DHT22;4587;51.434;6.788;2024-02-16T02:40:56;14.00;99.90
9103;DHT22;4587;51.434;6.788;2024-02-16T02:43:22;14.00;99.90
9103;DHT22;4587;51.434;6.788;2024-02-16T02:45:48;14.00;99.90
9103;DHT22;4587;51.434;6.788;2024-02-16T02:48:14;14.00;99.90
9103;DHT22;4587;51.434;6.788;2024-02-16T02:50:39;14.00;99.90
9103;DHT22;4587;51.434;6.788;2024-02-16T02:53:05;13.90;99.90
9103;DHT22;4587;51.434;6.788;2024-02-16T02:55:31;13.90;99.90
9103;DHT22;4587;51.434;6.788;2024-02-16T02:57:57;13.90;99.90
9103;DHT22;4587;51.434;6.788;2024-02-16T03:00:23;13.90;99.90
9103;DHT22;4587;51.434;6.788;2024-02-16T03:02:49;13.90;99.90
9103;DHT22;4587;51.434;6.788;2024-02-16T03:05:15;13.80;99.90
9103;DHT22;4587;51.434;6.788;2024-02-16T03:07:40;13.90;99.90
9103;DHT22;4587;51.434;6.788;2024-02-16T03:10:07;14.00;99.90
9103;DHT22;4587;51.434;6.788;2024-02-16T03:12:34;13.90;99.90
9103;DHT22;4587;51.434;6.788;2024-02-16T03:15:00;14.00;99.90
9103;DHT22;4587;51.434;6.788;2024-02-16T03:17:25;14.00;99.90
9103;DHT22;4587;51.434;6.788;2024-02-16T03:19:51;14.00;99.90
9103;DHT22;4587;51.434;6.788;2024-02-16T03:22:17;13.90;99.90
9103;DHT22;4587;51.434;6.788;2024-02-16T03:24:42;14.00;99.90
9103;DHT22;4587;51.434;6.788;2024-02-16T03:27:10;13.90;99.90
9103;DHT22;4587;51.434;6.788;2024-02-16T03:29:36;13.90;99.90
9103;DHT22;4587;51.434;6.788;2024-02-16T03:32:01;13.90;99.90
9103;DHT22;4587;51.434;6.788;2024-02-16T03:34:27;13.90;99.90
9103;DHT22;4587;51.434;6.788;2024-02-16T03:36:53;13.90;99.90
9103;DHT22;4587;51.434;6.788;2024-02-16T03:39:19;13.90;99.90
9103;DHT22;4587;51.434;6.788;2024-02-16T03:41:45;13.90;99.90
9103;DHT22;4587;51.434;6.788;2024-02-16T03:44:14;13.90;99.90
9103;DHT22;4587;51.434;6.788;2024-02-16T03:46:39;13.90;99.90
9103;DHT22;4587;51.434;6.788;2024-02-16T03:49:05;14.00;99.90
9103;DHT22;4587;51.434;6.788;2024-02-16T03:51:30;14.00;99.90
9103;DHT22;4587;51.434;6.788;2024-02-16T03:53:56;14.00;99.90
9103;DHT22;4587;51.434;6.788;2024-02-16T03:56:22;14.00;99.90
9103;DHT22;4587;51.434;6.788;2024-02-16T03:58:47;14.00;99.90
9103;DHT22;4587;51.434;6.788;2024-02-16T04:01:13;14.00;99.90
9103;DHT22;4587;51.434;6.788;2024-02-16T04:03:38;14.00;99.90
9103;DHT22;4587;51.434;6.788;2024-02-16T04:06:04;14.00;99.90
9103;DHT22;4587;51.434;6.788;2024-02-16T04:08:30;14.00;99.90
9103;DHT22;4587;51.434;6.788;2024-02-16T04:10:55;13.90;99.90
9103;DHT22;4587;51.434;6.788;2024-02-16T04:13:22;14.00;99.90
9103;DHT22;4587;51.434;6.788;2024-02-16T04:15:47;14.00;99.90
9103;DHT22;4587;51.434;6.788;2024-02-16T04:18:13;14.00;99.90
9103;DHT22;4587;51.434;6.788;2024-02-16T04:20:38;13.90;99.90
9103;DHT22;4587;51.434;6.788;2024-02-16T04:23:06;13.90;99.90
9103;DHT22;4587;51.434;6.788;2024-02-16T04:25:31;13.90;99.90
9103;DHT22;4587;51.434;6.788;2024-02-16T04:27:57;13.80;99.90
9103;DHT22;4587;51.434;6.788;2024-02-16T04:30:22;13.90;99.90
9103;DHT22;4587;51.434;6.788;2024-02-16T04:32:48;13.80;99.90
9103;DHT22;4587;51.434;6.788;2024-02-16T04:35:14;13.90;99.90
9103;DHT22;4587;51.434;6.788;2024-02-16T04:37:40;13.90;99.90
9103;DHT22;4587;51.434;6.788;2024-02-16T04:40:06;13.90;99.90
9103;DHT22;4587;51.434;6.788;2024-02-16T04:42:31;13.90;99.90
9103;DHT22;4587;51.434;6.788;2024-02-16T04:44:57;13.90;99.90
9103;DHT22;4587;51.434;6.788;2024-02-16T04:47:25;13.80;99.90
9103;DHT22;4587;51.434;6.788;2024-02-16T04:49:50;13.80;99.90
9103;DHT22;4587;51.434;6.788;2024-02-16T04:52:16;13.80;99.90
9103;DHT22;4587;51.434;6.788;2024-02-16T04:54:41;13.80;99.90
9103;DHT22;4587;51.434;6.788;2024-02-16T04:57:07;13.70;99.90
9103;DHT22;4587;51.434;6.788;2024-02-16T04:59:33;13.80;99.90
9103;DHT22;4587;51.434;6.788;2024-02-16T05:01:58;13.80;99.90
9103;DHT22;4587;51.434;6.788;2024-02-16T05:04:24;13.70;99.90
9103;DHT22;4587;51.434;6.788;2024-02-16T05:06:49;13.70;99.90
9103;DHT22;4587;51.434;6.788;2024-02-16T05:09:17;13.70;99.90
9103;DHT22;4587;51.434;6.788;2024-02-16T05:11:44;13.70;99.90
9103;DHT22;4587;51.434;6.788;2024-02-16T05:14:10;13.60;99.90
9103;DHT22;4587;51.434;6.788;2024-02-16T05:16:37;13.70;99.90
9103;DHT22;4587;51.434;6.788;2024-02-16T05:19:07;13.70;99.90
9103;DHT22;4587;51.434;6.788;2024-02-16T05:21:33;13.80;99.90
9103;DHT22;4587;51.434;6.788;2024-02-16T05:23:59;13.80;99.90
9103;DHT22;4587;51.434;6.788;2024-02-16T05:26:25;13.70;99.90
9103;DHT22;4587;51.434;6.788;2024-02-16T05:28:50;13.70;99.90
9103;DHT22;4587;51.434;6.788;2024-02-16T05:31:17;13.70;99.90
9103;DHT22;4587;51.434;6.788;2024-02-16T05:33:47;13.70;99.90
9103;DHT22;4587;51.434;6.788;2024-02-16T05:36:16;13.60;99.90
9103;DHT22;4587;51.434;6.788;2024-02-16T05:38:41;13.60;99.90
9103;DHT22;4587;51.434;6.788;2024-02-16T05:41:08;13.60;99.90
9103;DHT22;4587;51.434;6.788;2024-02-16T05:43:34;13.60;99.90
9103;DHT22;4587;51.434;6.788;2024-02-16T05:46:00;13.60;99.90
9103;DHT22;4587;51.434;6.788;2024-02-16T05:48:26;13.60;99.90
9103;DHT22;4587;51.434;6.788;2024-02-16T05:50:57;13.50;99.90
9103;DHT22;4587;51.434;6.788;2024-02-16T05:53:25;13.60;99.90
9103;DHT22;4587;51.434;6.788;2024-02-16T05:55:51;13.50;99.90
9103;DHT22;4587;51.434;6.788;2024-02-16T05:58:16;13.50;99.90
9103;DHT22;4587;51.434;6.788;2024-02-16T06:00:43;13.40;99.90
9103;DHT22;4587;51.434;6.788;2024-02-16T06:03:08;13.40;99.90
9103;DHT22;4587;51.434;6.788;2024-02-16T06:05:34;13.40;99.90
9103;DHT22;4587;51.434;6.788;2024-02-16T06:08:00;13.40;99.90
9103;DHT22;4587;51.434;6.788;2024-02-16T06:10:26;13.40;99.90
9103;DHT22;4587;51.434;6.788;2024-02-16T06:12:51;13.40;99.90
9103;DHT22;4587;51.434;6.788;2024-02-16T06:15:17;13.40;99.90
9103;DHT22;4587;51.434;6.788;2024-02-16T06:17:42;13.50;99.90
9103;DHT22;4587;51.434;6.788;2024-02-16T06:20:08;13.50;99.90
9103;DHT22;4587;51.434;6.788;2024-02-16T06:22:38;13.50;99.90
9103;DHT22;4587;51.434;6.788;2024-02-16T06:25:04;13.50;99.90
9103;DHT22;4587;51.434;6.788;2024-02-16T06:27:30;13.50;99.90
9103;DHT22;4587;51.434;6.788;2024-02-16T06:29:56;13.50;99.90
9103;DHT22;4587;51.434;6.788;2024-02-16T06:32:22;13.60;99.90
9103;DHT22;4587;51.434;6.788;2024-02-16T06:34:47;13.60;99.90
9103;DHT22;4587;51.434;6.788;2024-02-16T06:37:13;13.60;99.90
9103;DHT22;4587;51.434;6.788;2024-02-16T06:39:38;13.60;99.90
9103;DHT22;4587;51.434;6.788;2024-02-16T06:42:04;13.70;99.90
9103;DHT22;4587;51.434;6.788;2024-02-16T06:44:29;13.70;99.90
9103;DHT22;4587;51.434;6.788;2024-02-16T06:46:55;13.60;99.90
9103;DHT22;4587;51.434;6.788;2024-02-16T06:49:20;13.60;99.90
9103;DHT22;4587;51.434;6.788;2024-02-16T06:51:46;13.60;99.90
9103;DHT22;4587;51.434;6.788;2024-02-16T06:54:11;13.60;99.90
9103;DHT22;4587;51.434;6.788;2024-02-16T06:56:37;13.60;99.90
9103;DHT22;4587;51.434;6.788;2024-02-16T06:59:03;13.70;99.90
9103;DHT22;4587;51.434;6.788;2024-02-16T07:01:28;13.70;99.90
9103;DHT22;4587;51.434;6.788;2024-02-16T07:03:54;13.70;99.90
9103;DHT22;4587;51.434;6.788;2024-02-16T07:06:20;13.80;99.90
9103;DHT22;4587;51.434;6.788;2024-02-16T07:08:45;13.70;99.90
9103;DHT22;4587;51.434;6.788;2024-02-16T07:11:11;13.70;99.90
9103;DHT22;4587;51.434;6.788;2024-02-16T07:13:42;13.70;99.90
9103;DHT22;4587;51.434;6.788;2024-02-16T07:16:08;13.70;99.90
9103;DHT22;4587;51.434;6.788;2024-02-16T07:18:34;13.70;99.90
9103;DHT22;4587;51.434;6.788;2024-02-16T07:20:59;13.70;99.90
9103;DHT22;4587;51.434;6.788;2024-02-16T07:23:25;13.70;99.90
9103;DHT22;4587;51.434;6.788;2024-02-16T07:25:51;13.80;99.90
9103;DHT22;4587;51.434;6.788;2024-02-16T07:28:20;13.80;99.90
9103;DHT22;4587;51.434;6.788;2024-02-16T07:30:46;13.80;99.90
9103;DHT22;4587;51.434;6.788;2024-02-16T07:33:11;13.90;99.90
9103;DHT22;4587;51.434;6.788;2024-02-16T07:35:37;13.90;99.90
9103;DHT22;4587;51.434;6.788;2024-02-16T07:38:03;14.00;99.90
9103;DHT22;4587;51.434;6.788;2024-02-16T07:40:29;14.10;99.90
9103;DHT22;4587;51.434;6.788;2024-02-16T07:42:54;14.20;99.90
9103;DHT22;4587;51.434;6.788;2024-02-16T07:45:20;14.30;99.90
9103;DHT22;4587;51.434;6.788;2024-02-16T07:47:46;14.40;99.90
9103;DHT22;4587;51.434;6.788;2024-02-16T07:50:12;14.40;99.90
9103;DHT22;4587;51.434;6.788;2024-02-16T07:52:38;14.40;99.90
9103;DHT22;4587;51.434;6.788;2024-02-16T07:55:06;14.50;99.90
9103;DHT22;4587;51.434;6.788;2024-02-16T07:57:31;14.50;99.90
9103;DHT22;4587;51.434;6.788;2024-02-16T07:59:57;14.60;99.90
9103;DHT22;4587;51.434;6.788;2024-02-16T08:02:23;14.70;99.90
9103;DHT22;4587;51.434;6.788;2024-02-16T08:04:49;14.70;99.90
9103;DHT22;4587;51.434;6.788;2024-02-16T08:07:14;14.70;99.90
9103;DHT22;4587;51.434;6.788;2024-02-16T08:09:45;14.80;99.90
9103;DHT22;4587;51.434;6.788;2024-02-16T08:12:11;14.70;99.90
9103;DHT22;4587;51.434;6.788;2024-02-16T08:14:40;14.70;99.90
9103;DHT22;4587;51.434;6.788;2024-02-16T08:17:07;14.70;99.90
9103;DHT22;4587;51.434;6.788;2024-02-16T08:19:34;14.80;99.90
9103;DHT22;4587;51.434;6.788;2024-02-16T08:22:04;14.80;99.90
9103;DHT22;4587;51.434;6.788;2024-02-16T08:24:32;14.80;99.90
9103;DHT22;4587;51.434;6.788;2024-02-16T08:26:58;14.80;99.90
9103;DHT22;4587;51.434;6.788;2024-02-16T08:29:23;14.90;99.90
9103;DHT22;4587;51.434;6.788;2024-02-16T08:31:51;15.00;99.90
9103;DHT22;4587;51.434;6.788;2024-02-16T08:34:16;14.90;99.90
9103;DHT22;4587;51.434;6.788;2024-02-16T08:36:49;15.00;99.90
9103;DHT22;4587;51.434;6.788;2024-02-16T08:39:15;15.00;99.90
9103;DHT22;4587;51.434;6.788;2024-02-16T08:41:41;15.10;99.90
9103;DHT22;4587;51.434;6.788;2024-02-16T08:44:09;15.20;99.90
9103;DHT22;4587;51.434;6.788;2024-02-16T08:46:35;15.30;99.90
9103;DHT22;4587;51.434;6.788;2024-02-16T08:49:02;15.30;99.90
9103;DHT22;4587;51.434;6.788;2024-02-16T08:51:27;15.30;99.90
9103;DHT22;4587;51.434;6.788;2024-02-16T08:53:53;15.30;99.90
9103;DHT22;4587;51.434;6.788;2024-02-16T08:56:19;15.30;99.90
9103;DHT22;4587;51.434;6.788;2024-02-16T08:58:45;15.30;99.90
9103;DHT22;4587;51.434;6.788;2024-02-16T09:01:10;15.20;99.90
9103;DHT22;4587;51.434;6.788;2024-02-16T09:03:36;15.20;99.90
9103;DHT22;4587;51.434;6.788;2024-02-16T09:06:04;15.30;99.90
9103;DHT22;4587;51.434;6.788;2024-02-16T09:08:29;15.40;99.90
9103;DHT22;4587;51.434;6.788;2024-02-16T09:11:02;15.30;99.90
9103;DHT22;4587;51.434;6.788;2024-02-16T09:13:32;15.40;99.90
9103;DHT22;4587;51.434;6.788;2024-02-16T09:15:58;15.40;99.90
9103;DHT22;4587;51.434;6.788;2024-02-16T09:18:23;15.40;99.90
9103;DHT22;4587;51.434;6.788;2024-02-16T09:20:49;15.50;99.90
9103;DHT22;4587;51.434;6.788;2024-02-16T09:23:14;15.60;99.90
9103;DHT22;4587;51.434;6.788;2024-02-16T09:25:40;15.60;99.90
9103;DHT22;4587;51.434;6.788;2024-02-16T09:28:06;15.70;99.90
9103;DHT22;4587;51.434;6.788;2024-02-16T09:30:32;15.70;99.90
9103;DHT22;4587;51.434;6.788;2024-02-16T09:32:58;15.70;99.90
9103;DHT22;4587;51.434;6.788;2024-02-16T09:35:23;15.80;99.90
9103;DHT22;4587;51.434;6.788;2024-02-16T09:37:49;15.80;99.90
9103;DHT22;4587;51.434;6.788;2024-02-16T09:40:14;15.90;99.90
9103;DHT22;4587;51.434;6.788;2024-02-16T09:42:40;16.00;99.90
9103;DHT22;4587;51.434;6.788;2024-02-16T09:45:07;16.00;99.90
9103;DHT22;4587;51.434;6.788;2024-02-16T09:47:33;16.00;99.90
9103;DHT22;4587;51.434;6.788;2024-02-16T09:50:00;16.10;99.90
9103;DHT22;4587;51.434;6.788;2024-02-16T09:52:26;16.10;99.90
9103;DHT22;4587;51.434;6.788;2024-02-16T09:54:52;16.20;99.90
9103;DHT22;4587;51.434;6.788;2024-02-16T09:57:18;16.20;99.90
9103;DHT22;4587;51.434;6.788;2024-02-16T09:59:44;16.30;99.90
9103;DHT22;4587;51.434;6.788;2024-02-16T10:02:10;16.30;99.90
9103;DHT22;4587;51.434;6.788;2024-02-16T10:04:36;16.40;99.90
9103;DHT22;4587;51.434;6.788;2024-02-16T10:07:02;16.40;99.90
9103;DHT22;4587;51.434;6.788;2024-02-16T10:09:29;16.30;99.90
9103;DHT22;4587;51.434;6.788;2024-02-16T10:11:54;16.30;99.90
9103;DHT22;4587;51.434;6.788;2024-02-16T10:14:20;16.30;99.90
9103;DHT22;4587;51.434;6.788;2024-02-16T10:17:01;16.20;99.90
9103;DHT22;4587;51.434;6.788;2024-02-16T10:19:28;16.20;99.90
9103;DHT22;4587;51.434;6.788;2024-02-16T10:21:54;16.10;99.90
9103;DHT22;4587;51.434;6.788;2024-02-16T10:24:21;16.10;99.90
9103;DHT22;4587;51.434;6.788;2024-02-16T10:26:47;16.00;99.90
9103;DHT22;4587;51.434;6.788;2024-02-16T10:29:17;16.10;99.90
9103;DHT22;4587;51.434;6.788;2024-02-16T10:31:45;16.00;99.90
9103;DHT22;4587;51.434;6.788;2024-02-16T10:34:11;16.10;99.90
9103;DHT22;4587;51.434;6.788;2024-02-16T10:36:38;16.10;99.90
9103;DHT22;4587;51.434;6.788;2024-02-16T10:39:06;16.30;99.90
9103;DHT22;4587;51.434;6.788;2024-02-16T10:41:37;16.30;99.90
9103;DHT22;4587;51.434;6.788;2024-02-16T10:44:03;16.30;99.90
9103;DHT22;4587;51.434;6.788;2024-02-16T10:46:29;16.30;99.90
9103;DHT22;4587;51.434;6.788;2024-02-16T10:48:55;16.30;99.90
9103;DHT22;4587;51.434;6.788;2024-02-16T10:51:36;16.20;99.90
9103;DHT22;4587;51.434;6.788;2024-02-16T10:54:04;16.30;99.90
9103;DHT22;4587;51.434;6.788;2024-02-16T10:56:37;16.30;99.90
9103;DHT22;4587;51.434;6.788;2024-02-16T10:59:05;16.20;99.90
9103;DHT22;4587;51.434;6.788;2024-02-16T11:01:41;16.10;99.90
9103;DHT22;4587;51.434;6.788;2024-02-16T11:04:08;16.20;99.90
9103;DHT22;4587;51.434;6.788;2024-02-16T11:06:56;16.10;99.90
9103;DHT22;4587;51.434;6.788;2024-02-16T11:09:35;16.10;99.90
9103;DHT22;4587;51.434;6.788;2024-02-16T11:12:02;16.10;99.90
9103;DHT22;4587;51.434;6.788;2024-02-16T11:14:35;16.10;99.90
9103;DHT22;4587;51.434;6.788;2024-02-16T11:17:02;16.10;99.90
9103;DHT22;4587;51.434;6.788;2024-02-16T11:19:32;16.10;99.90
9103;DHT22;4587;51.434;6.788;2024-02-16T11:21:58;16.10;99.90
9103;DHT22;4587;51.434;6.788;2024-02-16T11:24:34;16.00;99.90
9103;DHT22;4587;51.434;6.788;2024-02-16T11:27:06;16.00;99.90
9103;DHT22;4587;51.434;6.788;2024-02-16T11:29:34;15.90;99.90
9103;DHT22;4587;51.434;6.788;2024-02-16T11:32:01;15.90;99.90
9103;DHT22;4587;51.434;6.788;2024-02-16T11:34:28;15.80;99.90
9103;DHT22;4587;51.434;6.788;2024-02-16T11:36:58;15.80;99.90
9103;DHT22;4587;51.434;6.788;2024-02-16T11:39:25;15.80;99.90
9103;DHT22;4587;51.434;6.788;2024-02-16T11:42:11;15.70;99.90
9103;DHT22;4587;51.434;6.788;2024-02-16T11:44:38;15.80;99.90
9103;DHT22;4587;51.434;6.788;2024-02-16T11:47:08;15.80;99.90
9103;DHT22;4587;51.434;6.788;2024-02-16T11:49:37;15.70;99.90
9103;DHT22;4587;51.434;6.788;2024-02-16T11:52:07;15.80;99.90
9103;DHT22;4587;51.434;6.788;2024-02-16T11:54:33;15.80;99.90
9103;DHT22;4587;51.434;6.788;2024-02-16T11:56:58;15.70;99.90
9103;DHT22;4587;51.434;6.788;2024-02-16T11:59:24;15.70;99.90
9103;DHT22;4587;51.434;6.788;2024-02-16T12:01:51;15.70;99.90
9103;DHT22;4587;51.434;6.788;2024-02-16T12:04:28;15.70;99.90
9103;DHT22;4587;51.434;6.788;2024-02-16T12:07:00;15.70;99.90
9103;DHT22;4587;51.434;6.788;2024-02-16T12:09:26;15.70;99.90
9103;DHT22;4587;51.434;6.788;2024-02-16T12:11:55;15.70;99.90
9103;DHT22;4587;51.434;6.788;2024-02-16T12:14:22;15.60;99.90
9103;DHT22;4587;51.434;6.788;2024-02-16T12:16:49;15.60;99.90
9103;DHT22;4587;51.434;6.788;2024-02-16T12:19:15;15.60;99.90
9103;DHT22;4587;51.434;6.788;2024-02-16T12:21:41;15.60;99.90
9103;DHT22;4587;51.434;6.788;2024-02-16T12:24:06;15.60;99.90
9103;DHT22;4587;51.434;6.788;2024-02-16T12:26:32;15.60;99.90
9103;DHT22;4587;51.434;6.788;2024-02-16T12:28:57;15.60;99.90
9103;DHT22;4587;51.434;6.788;2024-02-16T12:31:23;15.60;99.90
9103;DHT22;4587;51.434;6.788;2024-02-16T12:33:49;15.60;99.90
9103;DHT22;4587;51.434;6.788;2024-02-16T12:36:15;15.70;99.90
9103;DHT22;4587;51.434;6.788;2024-02-16T12:38:40;15.60;99.90
9103;DHT22;4587;51.434;6.788;2024-02-16T12:41:06;15.60;99.90
9103;DHT22;4587;51.434;6.788;2024-02-16T12:43:32;15.70;99.90
9103;DHT22;4587;51.434;6.788;2024-02-16T12:45:57;15.60;99.90
9103;DHT22;4587;51.434;6.788;2024-02-16T12:48:27;15.70;99.90
9103;DHT22;4587;51.434;6.788;2024-02-16T12:50:52;15.60;99.90
9103;DHT22;4587;51.434;6.788;2024-02-16T12:53:18;15.60;99.90
9103;DHT22;4587;51.434;6.788;2024-02-16T12:55:44;15.60;99.90
9103;DHT22;4587;51.434;6.788;2024-02-16T12:58:09;15.60;99.90
9103;DHT22;4587;51.434;6.788;2024-02-16T13:00:35;15.60;99.90
9103;DHT22;4587;51.434;6.788;2024-02-16T13:03:01;15.60;99.90
9103;DHT22;4587;51.434;6.788;2024-02-16T13:05:27;15.60;99.90
9103;DHT22;4587;51.434;6.788;2024-02-16T13:07:52;15.50;99.90
9103;DHT22;4587;51.434;6.788;2024-02-16T13:10:18;15.40;99.90
9103;DHT22;4587;51.434;6.788;2024-02-16T13:12:44;15.40;99.90
9103;DHT22;4587;51.434;6.788;2024-02-16T13:15:10;15.40;99.90
9103;DHT22;4587;51.434;6.788;2024-02-16T13:17:36;15.40;99.90
9103;DHT22;4587;51.434;6.788;2024-02-16T13:20:01;15.30;99.90
9103;DHT22;4587;51.434;6.788;2024-02-16T13:22:38;15.30;99.90
9103;DHT22;4587;51.434;6.788;2024-02-16T13:25:05;15.40;99.90
9103;DHT22;4587;51.434;6.788;2024-02-16T13:27:32;15.40;99.90
9103;DHT22;4587;51.434;6.788;2024-02-16T13:29:58;15.30;99.90
9103;DHT22;4587;51.434;6.788;2024-02-16T13:32:23;15.30;99.90
9103;DHT22;4587;51.434;6.788;2024-02-16T13:34:49;15.20;99.90
9103;DHT22;4587;51.434;6.788;2024-02-16T13:37:15;15.20;99.90
9103;DHT22;4587;51.434;6.788;2024-02-16T13:39:40;15.20;99.90
9103;DHT22;4587;51.434;6.788;2024-02-16T13:42:06;15.20;99.90
9103;DHT22;4587;51.434;6.788;2024-02-16T13:44:32;15.10;99.90
9103;DHT22;4587;51.434;6.788;2024-02-16T13:46:57;15.00;99.90
9103;DHT22;4587;51.434;6.788;2024-02-16T13:49:23;15.00;99.90
9103;DHT22;4587;51.434;6.788;2024-02-16T13:51:48;14.90;99.90
9103;DHT22;4587;51.434;6.788;2024-02-16T13:54:14;14.80;99.90
9103;DHT22;4587;51.434;6.788;2024-02-16T13:56:40;14.80;99.90
9103;DHT22;4587;51.434;6.788;2024-02-16T13:59:06;14.70;99.90
9103;DHT22;4587;51.434;6.788;2024-02-16T14:01:33;14.70;99.90
9103;DHT22;4587;51.434;6.788;2024-02-16T14:03:59;14.60;99.90
9103;DHT22;4587;51.434;6.788;2024-02-16T14:06:25;14.70;99.90
9103;DHT22;4587;51.434;6.788;2024-02-16T14:08:51;14.60;99.90
9103;DHT22;4587;51.434;6.788;2024-02-16T14:11:18;14.60;99.90
9103;DHT22;4587;51.434;6.788;2024-02-16T14:13:44;14.50;99.90
9103;DHT22;4587;51.434;6.788;2024-02-16T14:16:09;14.50;99.90
9103;DHT22;4587;51.434;6.788;2024-02-16T14:18:36;14.40;99.90
9103;DHT22;4587;51.434;6.788;2024-02-16T14:21:02;14.40;99.90
9103;DHT22;4587;51.434;6.788;2024-02-16T14:23:29;14.40;99.90
9103;DHT22;4587;51.434;6.788;2024-02-16T14:25:55;14.40;99.90
9103;DHT22;4587;51.434;6.788;2024-02-16T14:28:20;14.40;99.90
9103;DHT22;4587;51.434;6.788;2024-02-16T14:30:46;14.40;99.90
9103;DHT22;4587;51.434;6.788;2024-02-16T14:33:11;14.30;99.90
9103;DHT22;4587;51.434;6.788;2024-02-16T14:35:37;14.30;99.90
9103;DHT22;4587;51.434;6.788;2024-02-16T14:38:03;14.20;99.90
9103;DHT22;4587;51.434;6.788;2024-02-16T14:40:30;14.20;99.90
9103;DHT22;4587;51.434;6.788;2024-02-16T14:42:56;14.20;99.90
9103;DHT22;4587;51.434;6.788;2024-02-16T14:45:21;14.20;99.90
9103;DHT22;4587;51.434;6.788;2024-02-16T14:47:50;14.20;99.90
9103;DHT22;4587;51.434;6.788;2024-02-16T14:50:16;14.20;99.90
9103;DHT22;4587;51.434;6.788;2024-02-16T14:52:42;14.20;99.90
9103;DHT22;4587;51.434;6.788;2024-02-16T14:55:11;14.10;99.90
9103;DHT22;4587;51.434;6.788;2024-02-16T14:57:38;14.10;99.90
9103;DHT22;4587;51.434;6.788;2024-02-16T15:00:04;14.10;99.90
9103;DHT22;4587;51.434;6.788;2024-02-16T15:02:29;14.00;99.90
9103;DHT22;4587;51.434;6.788;2024-02-16T15:04:55;14.10;99.90
9103;DHT22;4587;51.434;6.788;2024-02-16T15:07:20;14.00;99.90
9103;DHT22;4587;51.434;6.788;2024-02-16T15:09:46;14.00;99.90
9103;DHT22;4587;51.434;6.788;2024-02-16T15:12:11;14.00;99.90
9103;DHT22;4587;51.434;6.788;2024-02-16T15:14:37;14.00;99.90
9103;DHT22;4587;51.434;6.788;2024-02-16T15:17:02;14.00;99.90
9103;DHT22;4587;51.434;6.788;2024-02-16T15:19:30;14.00;99.90
9103;DHT22;4587;51.434;6.788;2024-02-16T15:21:55;14.00;99.90
9103;DHT22;4587;51.434;6.788;2024-02-16T15:24:21;14.00;99.90
9103;DHT22;4587;51.434;6.788;2024-02-16T15:26:46;14.00;99.90
9103;DHT22;4587;51.434;6.788;2024-02-16T15:29:12;14.00;99.90
9103;DHT22;4587;51.434;6.788;2024-02-16T15:31:39;14.00;99.90
9103;DHT22;4587;51.434;6.788;2024-02-16T15:34:04;14.00;99.90
9103;DHT22;4587;51.434;6.788;2024-02-16T15:36:30;14.10;99.90
9103;DHT22;4587;51.434;6.788;2024-02-16T15:38:55;14.00;99.90
9103;DHT22;4587;51.434;6.788;2024-02-16T15:41:21;14.00;99.90
9103;DHT22;4587;51.434;6.788;2024-02-16T15:43:46;14.00;99.90
9103;DHT22;4587;51.434;6.788;2024-02-16T15:46:12;14.00;99.90
9103;DHT22;4587;51.434;6.788;2024-02-16T15:48:37;13.90;99.90
9103;DHT22;4587;51.434;6.788;2024-02-16T15:51:03;13.90;99.90
9103;DHT22;4587;51.434;6.788;2024-02-16T15:53:33;13.90;99.90
9103;DHT22;4587;51.434;6.788;2024-02-16T15:55:58;13.90;99.90